createdAt,value
2022-12-13T00:02:12.936Z,22.03
2022-12-13T00:07:14.327Z,22.00
2022-12-13T00:12:16.040Z,22.00
2022-12-13T00:17:17.406Z,21.97
2022-12-13T00:22:19.252Z,21.99
2022-12-13T00:27:20.624Z,22.04
2022-12-13T00:32:22.061Z,22.03
2022-12-13T00:37:23.475Z,22.10
2022-12-13T00:42:24.862Z,22.01
2022-12-13T00:47:26.239Z,21.97
2022-12-13T00:52:27.623Z,22.00
2022-12-13T00:57:29.003Z,22.03
2022-12-13T01:02:30.372Z,22.08
2022-12-13T01:07:31.771Z,22.03
2022-12-13T01:12:35.914Z,22.04
2022-12-13T01:17:37.344Z,21.99
2022-12-13T01:22:38.745Z,21.97
2022-12-13T01:27:40.109Z,21.96
2022-12-13T01:32:41.495Z,21.98
2022-12-13T01:37:43.007Z,22.01
2022-12-13T01:42:44.388Z,22.06
2022-12-13T01:47:46.827Z,22.05
2022-12-13T01:52:48.404Z,21.99
2022-12-13T01:57:49.771Z,21.96
2022-12-13T02:02:51.217Z,21.97
2022-12-13T02:07:52.639Z,21.97
2022-12-13T02:12:54.088Z,21.98
2022-12-13T02:18:30.230Z,22.02
2022-12-13T02:23:46.698Z,22.02
2022-12-13T02:29:06.599Z,22.05
2022-12-13T02:34:14.276Z,22.08
2022-12-13T02:39:30.193Z,22.05
2022-12-13T02:44:35.875Z,22.03
2022-12-13T02:49:38.657Z,21.96
2022-12-13T02:54:42.837Z,21.98
2022-12-13T02:59:44.381Z,21.96
2022-12-13T03:05:21.282Z,22.01
2022-12-13T03:10:27.987Z,21.98
2022-12-13T03:15:49.363Z,21.96
2022-12-13T03:20:53.058Z,21.88
2022-12-13T03:25:55.767Z,21.94
2022-12-13T03:30:57.174Z,21.98
2022-12-13T03:35:58.568Z,22.07
2022-12-13T03:41:04.711Z,22.03
2022-12-13T03:46:06.929Z,22.07
2022-12-13T03:51:08.327Z,22.09
2022-12-13T03:56:09.685Z,22.10
2022-12-13T04:01:12.752Z,22.13
2022-12-13T04:06:22.250Z,22.13
2022-12-13T04:11:43.728Z,22.09
2022-12-13T04:16:45.245Z,22.09
2022-12-13T04:21:46.624Z,22.09
2022-12-13T04:26:48.032Z,22.03
2022-12-13T04:31:49.492Z,22.03
2022-12-13T04:36:50.925Z,22.02
2022-12-13T04:41:52.720Z,22.05
2022-12-13T04:46:54.096Z,22.11
2022-12-13T04:52:02.642Z,22.08
2022-12-13T04:57:08.167Z,22.12
2022-12-13T05:02:10.152Z,22.09
2022-12-13T05:07:11.523Z,22.10
2022-12-13T05:12:22.327Z,22.05
2022-12-13T05:17:24.779Z,22.04
2022-12-13T05:22:26.547Z,22.04
2022-12-13T05:27:27.998Z,22.01
2022-12-13T05:32:42.700Z,22.02
2022-12-13T05:37:46.237Z,22.04
2022-12-13T05:43:00.689Z,22.11
2022-12-13T05:48:02.557Z,22.10
2022-12-13T05:53:04.543Z,22.14
2022-12-13T05:58:05.927Z,22.18
2022-12-13T06:03:14.919Z,22.19
2022-12-13T06:08:24.006Z,22.12
2022-12-13T06:13:32.323Z,22.04
2022-12-13T06:18:34.559Z,22.01
2022-12-13T06:23:35.978Z,22.02
2022-12-13T06:28:37.375Z,22.03
2022-12-13T06:33:38.909Z,22.08
2022-12-13T06:38:43.231Z,22.08
2022-12-13T06:43:45.146Z,22.00
2022-12-13T06:48:46.550Z,21.96
2022-12-13T06:53:47.974Z,21.94
2022-12-13T06:58:49.343Z,21.94
2022-12-13T07:03:50.773Z,21.95
2022-12-13T07:08:56.461Z,21.98
2022-12-13T07:13:57.821Z,21.99
2022-12-13T07:19:01.277Z,22.13
2022-12-13T07:24:02.944Z,22.10
2022-12-13T07:29:04.638Z,21.99
2022-12-13T07:34:06.048Z,21.97
2022-12-13T07:39:07.459Z,21.93
2022-12-13T07:44:08.879Z,21.93
2022-12-13T07:49:11.553Z,21.89
2022-12-13T07:54:12.919Z,21.97
2022-12-13T07:59:14.297Z,21.94
2022-12-13T08:04:15.694Z,21.84
2022-12-13T08:09:17.088Z,22.02
2022-12-13T08:14:19.280Z,22.17
2022-12-13T08:19:20.908Z,22.18
2022-12-13T08:24:26.240Z,22.30
2022-12-13T08:29:34.820Z,22.31
2022-12-13T08:34:36.703Z,22.38
2022-12-13T08:39:38.286Z,22.36
2022-12-13T08:44:39.660Z,22.44
2022-12-13T08:49:41.512Z,22.56
2022-12-13T08:54:44.539Z,22.65
2022-12-13T08:59:46.248Z,22.73
2022-12-13T09:04:47.642Z,22.80
2022-12-13T09:09:55.181Z,22.77
2022-12-13T09:15:01.629Z,22.83
2022-12-13T09:20:03.999Z,22.86
2022-12-13T09:25:15.001Z,22.88
2022-12-13T09:30:25.903Z,22.90
2022-12-13T09:35:32.906Z,22.94
2022-12-13T09:40:37.571Z,22.93
2022-12-13T09:45:42.841Z,22.95
2022-12-13T09:50:58.036Z,22.92
2022-12-13T09:56:10.215Z,22.96
2022-12-13T10:01:12.552Z,23.00
2022-12-13T10:06:23.501Z,22.96
2022-12-13T10:11:32.609Z,22.94
2022-12-13T10:16:35.764Z,22.99
2022-12-13T10:21:39.661Z,22.94
2022-12-13T10:26:41.081Z,22.99
2022-12-13T10:31:50.728Z,23.02
2022-12-13T10:36:52.158Z,23.02
2022-12-13T10:42:02.493Z,23.00
2022-12-13T10:47:17.013Z,23.02
2022-12-13T10:52:30.856Z,23.03
2022-12-13T10:57:33.127Z,22.98
2022-12-13T11:02:38.358Z,22.99
2022-12-13T11:07:39.915Z,23.08
2022-12-13T11:12:41.311Z,23.02
2022-12-13T11:17:53.435Z,23.05
2022-12-13T11:23:22.722Z,23.07
2022-12-13T11:28:53.776Z,23.10
2022-12-13T11:34:22.379Z,23.16
2022-12-13T11:39:27.992Z,23.13
2022-12-13T11:44:52.987Z,23.19
2022-12-13T11:49:54.388Z,23.10
2022-12-13T11:55:05.872Z,23.08
2022-12-13T12:00:35.899Z,23.05
2022-12-13T12:05:38.160Z,23.10
2022-12-13T12:10:49.276Z,23.07
2022-12-13T12:16:13.355Z,23.06
2022-12-13T12:27:30.902Z,23.02
2022-12-13T12:32:33.621Z,23.02
2022-12-13T12:37:53.557Z,23.05
2022-12-13T12:43:15.823Z,23.01
2022-12-13T12:54:18.737Z,23.06
2022-12-13T12:59:36.116Z,23.01
2022-12-13T13:04:42.386Z,23.00
2022-12-13T13:09:43.808Z,23.03
2022-12-13T13:14:45.173Z,23.06
2022-12-13T13:19:47.499Z,23.04
2022-12-13T13:24:58.472Z,23.02
2022-12-13T13:30:26.256Z,22.99
2022-12-13T13:35:30.961Z,22.99
2022-12-13T13:40:38.302Z,22.99
2022-12-13T13:45:49.916Z,23.00
2022-12-13T13:51:15.631Z,23.01
2022-12-13T13:56:54.476Z,23.05
2022-12-13T14:02:22.544Z,23.03
2022-12-13T14:07:48.050Z,23.04
2022-12-13T14:12:55.408Z,22.97
2022-12-13T14:18:25.048Z,22.97
2022-12-13T14:23:42.840Z,22.97
2022-12-13T14:28:53.737Z,23.01
2022-12-13T14:33:55.768Z,22.97
2022-12-13T14:39:02.109Z,23.06
2022-12-13T14:44:24.632Z,23.07
2022-12-13T14:49:28.509Z,23.02
2022-12-13T14:54:33.594Z,22.97
2022-12-13T14:59:34.969Z,22.99
2022-12-13T15:04:37.678Z,22.89
2022-12-13T15:09:40.144Z,22.81
2022-12-13T15:14:55.789Z,22.78
2022-12-13T15:19:57.227Z,22.67
2022-12-13T15:24:58.681Z,22.63
2022-12-13T15:30:00.058Z,22.58
2022-12-13T15:35:14.508Z,22.58
2022-12-13T15:40:15.963Z,22.52
2022-12-13T15:45:19.850Z,22.57
2022-12-13T15:50:38.518Z,22.52
2022-12-13T15:55:42.613Z,22.55
2022-12-13T16:00:48.294Z,22.46
2022-12-13T16:05:53.435Z,22.46
2022-12-13T16:10:54.829Z,22.43
2022-12-13T16:16:09.138Z,22.41
2022-12-13T16:21:11.038Z,22.40
2022-12-13T16:26:13.321Z,22.44
2022-12-13T16:31:18.630Z,22.43
2022-12-13T16:36:20.174Z,22.42
2022-12-13T16:41:21.982Z,22.44
2022-12-13T16:47:15.155Z,22.43
2022-12-13T16:51:48.549Z,22.38
2022-12-13T16:56:50.543Z,22.34
2022-12-13T17:01:51.963Z,22.32
2022-12-13T17:06:55.209Z,22.30
2022-12-13T17:11:56.898Z,22.27
2022-12-13T17:16:58.334Z,22.36
2022-12-13T17:21:59.747Z,22.37
2022-12-13T17:27:01.116Z,22.36
2022-12-13T17:32:03.249Z,22.39
2022-12-13T17:37:10.208Z,22.42
2022-12-13T17:42:12.040Z,22.37
2022-12-13T17:47:13.699Z,22.36
2022-12-13T17:52:15.089Z,22.35
2022-12-13T17:57:16.463Z,22.34
2022-12-13T18:02:22.632Z,22.33
2022-12-13T18:07:24.011Z,22.35
2022-12-13T18:12:25.657Z,22.35
2022-12-13T18:17:46.529Z,22.40
2022-12-13T18:22:51.504Z,22.40
2022-12-13T18:28:00.672Z,22.36
2022-12-13T18:33:02.606Z,22.33
2022-12-13T18:38:04.052Z,22.31
2022-12-13T18:43:05.485Z,22.36
2022-12-13T18:48:06.933Z,22.38
2022-12-13T18:53:08.319Z,22.33
2022-12-13T18:58:09.707Z,22.28
2022-12-13T19:03:11.165Z,22.27
2022-12-13T19:08:12.632Z,22.27
2022-12-13T19:13:14.000Z,22.33
2022-12-13T19:18:15.381Z,22.33
2022-12-13T19:23:17.856Z,22.33
2022-12-13T19:28:19.283Z,22.33
2022-12-13T19:33:20.687Z,22.33
2022-12-13T19:38:22.223Z,22.33
2022-12-13T19:43:23.873Z,22.33
2022-12-13T19:48:25.500Z,22.32
2022-12-13T19:53:27.949Z,22.32
2022-12-13T19:58:29.664Z,22.29
2022-12-13T20:03:32.794Z,22.33
2022-12-13T20:08:34.272Z,22.34
2022-12-13T20:13:35.660Z,22.32
2022-12-13T20:18:37.020Z,22.31
2022-12-13T20:23:38.387Z,22.27
2022-12-13T20:28:39.764Z,22.23
2022-12-13T20:33:42.172Z,22.24
2022-12-13T20:38:43.648Z,22.24
2022-12-13T20:43:48.488Z,22.28
2022-12-13T20:48:50.768Z,22.27
2022-12-13T20:53:52.208Z,22.29
2022-12-13T20:58:53.623Z,22.30
2022-12-13T21:03:55.620Z,22.28
2022-12-13T21:09:02.320Z,22.28
2022-12-13T21:14:21.285Z,22.30
2022-12-13T21:19:39.430Z,22.33
2022-12-13T21:24:41.735Z,22.31
2022-12-13T21:29:43.098Z,22.29
2022-12-13T21:34:44.489Z,22.31
2022-12-13T21:39:46.087Z,22.28
2022-12-13T21:44:47.492Z,22.30
2022-12-13T21:49:49.068Z,22.29
2022-12-13T21:54:52.921Z,22.30
2022-12-13T22:00:00.589Z,22.26
2022-12-13T22:05:02.062Z,22.25
2022-12-13T22:10:03.584Z,22.20
2022-12-13T22:15:07.105Z,22.24
2022-12-13T22:20:13.453Z,22.20
2022-12-13T22:25:14.927Z,22.13
2022-12-13T22:30:16.352Z,22.12
2022-12-13T22:35:17.716Z,22.12
2022-12-13T22:40:19.175Z,22.14
2022-12-13T22:45:20.591Z,22.15
2022-12-13T22:50:22.221Z,22.20
2022-12-13T22:55:23.587Z,22.21
2022-12-13T23:00:24.960Z,22.21
2022-12-13T23:05:26.344Z,22.16
2022-12-13T23:10:46.028Z,22.04
2022-12-13T23:15:49.537Z,22.03
2022-12-13T23:20:51.088Z,22.05
2022-12-13T23:25:52.548Z,22.09
2022-12-13T23:30:53.957Z,22.07
2022-12-13T23:36:09.195Z,22.11
2022-12-13T23:41:27.126Z,22.16
2022-12-13T23:46:34.996Z,22.17
2022-12-13T23:51:37.803Z,22.16
2022-12-13T23:56:39.182Z,22.19
